sensor_id;sensor_type;location;lat;lon;timestamp;pressure;altitude;pressure_sealevel;temperature;humidity
60099;BME280;62818;49.394;8.686;2023-10-31T00:00:54;98774.00;;;12.81;100.00
60099;BME280;62818;49.394;8.686;2023-10-31T00:01:55;98778.25;;;13.23;100.00
60099;BME280;62818;49.394;8.686;2023-10-31T00:02:55;98778.47;;;13.10;100.00
60099;BME280;62818;49.394;8.686;2023-10-31T00:03:56;98770.28;;;12.82;100.00
60099;BME280;62818;49.394;8.686;2023-10-31T00:04:57;98777.59;;;12.98;100.00
60099;BME280;62818;49.394;8.686;2023-10-31T00:05:57;98777.78;;;12.74;100.00
60099;BME280;62818;49.394;8.686;2023-10-31T00:06:58;98786.53;;;12.62;100.00
60099;BME280;62818;49.394;8.686;2023-10-31T00:07:58;98783.72;;;12.87;100.00
60099;BME280;62818;49.394;8.686;2023-10-31T00:08:59;98786.22;;;12.82;100.00
60099;BME280;62818;49.394;8.686;2023-10-31T00:09:59;98794.94;;;13.01;100.00
60099;BME280;62818;49.394;8.686;2023-10-31T00:11:00;98791.31;;;12.72;100.00
60099;BME280;62818;49.394;8.686;2023-10-31T00:12:00;98789.78;;;12.64;100.00
60099;BME280;62818;49.394;8.686;2023-10-31T00:13:01;98792.94;;;12.73;100.00
60099;BME280;62818;49.394;8.686;2023-10-31T00:14:01;98786.22;;;12.82;100.00
60099;BME280;62818;49.394;8.686;2023-10-31T00:15:02;98786.19;;;12.59;100.00
60099;BME280;62818;49.394;8.686;2023-10-31T00:16:02;98780.13;;;12.82;100.00
60099;BME280;62818;49.394;8.686;2023-10-31T00:17:03;98789.69;;;12.71;100.00
60099;BME280;62818;49.394;8.686;2023-10-31T00:18:04;98790.59;;;12.65;100.00
60099;BME280;62818;49.394;8.686;2023-10-31T00:19:04;98789.09;;;12.69;100.00
60099;BME280;62818;49.394;8.686;2023-10-31T00:20:05;98792.03;;;12.79;100.00
60099;BME280;62818;49.394;8.686;2023-10-31T00:21:06;98796.34;;;12.50;100.00
60099;BME280;62818;49.394;8.686;2023-10-31T00:22:07;98796.66;;;12.42;100.00
60099;BME280;62818;49.394;8.686;2023-10-31T00:23:07;98789.75;;;12.53;100.00
60099;BME280;62818;49.394;8.686;2023-10-31T00:24:08;98800.13;;;12.43;100.00
60099;BME280;62818;49.394;8.686;2023-10-31T00:25:08;98799.47;;;12.59;100.00
60099;BME280;62818;49.394;8.686;2023-10-31T00:26:09;98794.41;;;12.57;100.00
60099;BME280;62818;49.394;8.686;2023-10-31T00:27:10;98795.91;;;12.65;100.00
60099;BME280;62818;49.394;8.686;2023-10-31T00:28:10;98802.50;;;12.33;100.00
60099;BME280;62818;49.394;8.686;2023-10-31T00:29:11;98811.06;;;12.35;100.00
60099;BME280;62818;49.394;8.686;2023-10-31T00:30:11;98804.81;;;12.59;100.00
60099;BME280;62818;49.394;8.686;2023-10-31T00:31:12;98809.56;;;12.39;100.00
60099;BME280;62818;49.394;8.686;2023-10-31T00:32:14;98819.47;;;12.32;100.00
60099;BME280;62818;49.394;8.686;2023-10-31T00:33:15;98814.22;;;12.43;100.00
60099;BME280;62818;49.394;8.686;2023-10-31T00:34:15;98820.63;;;12.24;100.00
60099;BME280;62818;49.394;8.686;2023-10-31T00:35:16;98828.03;;;12.34;100.00
60099;BME280;62818;49.394;8.686;2023-10-31T00:36:16;98824.63;;;12.45;100.00
60099;BME280;62818;49.394;8.686;2023-10-31T00:37:17;98820.44;;;12.37;100.00
60099;BME280;62818;49.394;8.686;2023-10-31T00:38:17;98821.38;;;12.43;100.00
60099;BME280;62818;49.394;8.686;2023-10-31T00:39:18;98825.00;;;12.48;100.00
60099;BME280;62818;49.394;8.686;2023-10-31T00:40:18;98821.19;;;12.56;100.00
60099;BME280;62818;49.394;8.686;2023-10-31T00:41:19;98826.47;;;12.44;100.00
60099;BME280;62818;49.394;8.686;2023-10-31T00:42:19;98834.84;;;12.30;100.00
60099;BME280;62818;49.394;8.686;2023-10-31T00:43:20;98829.97;;;12.27;100.00
60099;BME280;62818;49.394;8.686;2023-10-31T00:44:20;98839.66;;;12.21;100.00
60099;BME280;62818;49.394;8.686;2023-10-31T00:45:21;98837.50;;;12.30;100.00
60099;BME280;62818;49.394;8.686;2023-10-31T00:46:22;98830.84;;;12.21;100.00
60099;BME280;62818;49.394;8.686;2023-10-31T00:47:22;98835.72;;;12.24;100.00
60099;BME280;62818;49.394;8.686;2023-10-31T00:48:23;98838.81;;;12.39;100.00
60099;BME280;62818;49.394;8.686;2023-10-31T00:49:23;98830.66;;;12.52;100.00
60099;BME280;62818;49.394;8.686;2023-10-31T00:50:23;98833.94;;;12.36;100.00
60099;BME280;62818;49.394;8.686;2023-10-31T00:51:24;98832.75;;;12.32;100.00
60099;BME280;62818;49.394;8.686;2023-10-31T00:52:24;98843.38;;;12.32;100.00
60099;BME280;62818;49.394;8.686;2023-10-31T00:53:25;98847.53;;;12.10;100.00
60099;BME280;62818;49.394;8.686;2023-10-31T00:54:26;98841.72;;;12.01;100.00
60099;BME280;62818;49.394;8.686;2023-10-31T00:55:26;98835.75;;;11.87;100.00
60099;BME280;62818;49.394;8.686;2023-10-31T00:56:26;98835.81;;;11.81;100.00
60099;BME280;62818;49.394;8.686;2023-10-31T00:57:27;98839.28;;;12.00;100.00
60099;BME280;62818;49.394;8.686;2023-10-31T00:58:28;98837.53;;;11.94;100.00
60099;BME280;62818;49.394;8.686;2023-10-31T00:59:28;98837.38;;;12.07;100.00
60099;BME280;62818;49.394;8.686;2023-10-31T01:56:40;98854.56;;;11.43;100.00
60099;BME280;62818;49.394;8.686;2023-10-31T01:57:44;98847.19;;;11.45;100.00
60099;BME280;62818;49.394;8.686;2023-10-31T01:58:48;98856.56;;;11.66;100.00
60099;BME280;62818;49.394;8.686;2023-10-31T01:59:49;98860.44;;;11.70;100.00
60099;BME280;62818;49.394;8.686;2023-10-31T02:00:50;98854.84;;;11.53;100.00
60099;BME280;62818;49.394;8.686;2023-10-31T02:01:51;98858.97;;;11.49;100.00
60099;BME280;62818;49.394;8.686;2023-10-31T02:02:53;98856.91;;;11.51;100.00
60099;BME280;62818;49.394;8.686;2023-10-31T02:03:54;98864.25;;;11.31;100.00
60099;BME280;62818;49.394;8.686;2023-10-31T02:04:55;98863.81;;;11.34;100.00
60099;BME280;62818;49.394;8.686;2023-10-31T02:05:56;98866.88;;;11.31;100.00
60099;BME280;62818;49.394;8.686;2023-10-31T02:06:57;98870.41;;;11.25;100.00
60099;BME280;62818;49.394;8.686;2023-10-31T02:07:57;98873.84;;;11.32;100.00
60099;BME280;62818;49.394;8.686;2023-10-31T02:08:58;98869.81;;;11.23;100.00
60099;BME280;62818;49.394;8.686;2023-10-31T02:09:58;98869.97;;;11.28;100.00
60099;BME280;62818;49.394;8.686;2023-10-31T02:10:59;98874.69;;;11.26;100.00
60099;BME280;62818;49.394;8.686;2023-10-31T02:12:00;98877.72;;;11.30;100.00
60099;BME280;62818;49.394;8.686;2023-10-31T02:13:18;98874.69;;;11.26;100.00
60099;BME280;62818;49.394;8.686;2023-10-31T02:14:20;98865.94;;;11.26;100.00
60099;BME280;62818;49.394;8.686;2023-10-31T02:15:22;98868.06;;;11.35;100.00
60099;BME280;62818;49.394;8.686;2023-10-31T02:16:22;98861.47;;;11.44;100.00
60099;BME280;62818;49.394;8.686;2023-10-31T02:17:23;98869.84;;;11.66;100.00
60099;BME280;62818;49.394;8.686;2023-10-31T02:18:23;98862.97;;;11.58;100.00
60099;BME280;62818;49.394;8.686;2023-10-31T02:19:24;98868.28;;;11.58;100.00
60099;BME280;62818;49.394;8.686;2023-10-31T02:20:25;98873.59;;;11.58;100.00
60099;BME280;62818;49.394;8.686;2023-10-31T03:35:23;98940.94;;;11.08;100.00
60099;BME280;62818;49.394;8.686;2023-10-31T03:36:24;98936.38;;;10.84;100.00
60099;BME280;62818;49.394;8.686;2023-10-31T03:37:24;98935.41;;;10.72;100.00
60099;BME280;62818;49.394;8.686;2023-10-31T03:38:25;98941.13;;;10.69;100.00
60099;BME280;62818;49.394;8.686;2023-10-31T03:39:25;98936.66;;;10.63;100.00
60099;BME280;62818;49.394;8.686;2023-10-31T03:40:25;98937.69;;;10.62;100.00
60099;BME280;62818;49.394;8.686;2023-10-31T03:41:26;98947.41;;;10.74;100.00
60099;BME280;62818;49.394;8.686;2023-10-31T03:42:26;98951.09;;;10.67;100.00
60099;BME280;62818;49.394;8.686;2023-10-31T03:43:27;98949.25;;;10.74;100.00
60099;BME280;62818;49.394;8.686;2023-10-31T03:44:27;98953.13;;;10.71;100.00
60099;BME280;62818;49.394;8.686;2023-10-31T03:45:28;98965.53;;;10.84;100.00
60099;BME280;62818;49.394;8.686;2023-10-31T03:46:29;98968.28;;;11.02;100.00
60099;BME280;62818;49.394;8.686;2023-10-31T03:47:29;98956.94;;;10.82;100.00
60099;BME280;62818;49.394;8.686;2023-10-31T03:48:30;98963.94;;;10.70;100.00
60099;BME280;62818;49.394;8.686;2023-10-31T03:49:30;98958.28;;;10.60;100.00
60099;BME280;62818;49.394;8.686;2023-10-31T03:50:31;98964.75;;;10.77;100.00
60099;BME280;62818;49.394;8.686;2023-10-31T03:51:31;98967.94;;;10.92;100.00
60099;BME280;62818;49.394;8.686;2023-10-31T03:52:32;98966.78;;;10.75;100.00
60099;BME280;62818;49.394;8.686;2023-10-31T03:53:32;98974.34;;;10.65;100.00
60099;BME280;62818;49.394;8.686;2023-10-31T03:54:33;98962.75;;;10.66;100.00
60099;BME280;62818;49.394;8.686;2023-10-31T03:55:33;98961.44;;;10.88;100.00
60099;BME280;62818;49.394;8.686;2023-10-31T03:56:43;98965.09;;;10.87;100.00
60099;BME280;62818;49.394;8.686;2023-10-31T03:57:44;98964.56;;;10.65;100.00
60099;BME280;62818;49.394;8.686;2023-10-31T03:58:44;98966.06;;;10.55;100.00
60099;BME280;62818;49.394;8.686;2023-10-31T03:59:46;98970.44;;;10.74;100.00
60099;BME280;62818;49.394;8.686;2023-10-31T04:00:46;98965.94;;;10.81;100.00
60099;BME280;62818;49.394;8.686;2023-10-31T04:01:47;98963.88;;;10.83;100.00
60099;BME280;62818;49.394;8.686;2023-10-31T04:02:47;98971.69;;;10.71;100.00
60099;BME280;62818;49.394;8.686;2023-10-31T04:03:48;98975.56;;;10.69;100.00
60099;BME280;62818;49.394;8.686;2023-10-31T04:04:48;98967.44;;;10.64;100.00
60099;BME280;62818;49.394;8.686;2023-10-31T04:05:49;98974.97;;;10.67;100.00
60099;BME280;62818;49.394;8.686;2023-10-31T04:06:49;98977.84;;;10.59;100.00
60099;BME280;62818;49.394;8.686;2023-10-31T04:07:50;98973.75;;;10.63;100.00
60099;BME280;62818;49.394;8.686;2023-10-31T04:08:50;98981.53;;;11.02;100.00
60099;BME280;62818;49.394;8.686;2023-10-31T04:10:53;98976.22;;;10.58;100.00
60099;BME280;62818;49.394;8.686;2023-10-31T04:11:54;98986.81;;;11.02;100.00
60099;BME280;62818;49.394;8.686;2023-10-31T04:12:54;98985.69;;;10.85;100.00
60099;BME280;62818;49.394;8.686;2023-10-31T04:13:58;98988.81;;;10.69;100.00
60099;BME280;62818;49.394;8.686;2023-10-31T04:14:58;98991.06;;;10.65;100.00
60099;BME280;62818;49.394;8.686;2023-10-31T04:16:02;98997.19;;;10.66;100.00
60099;BME280;62818;49.394;8.686;2023-10-31T04:17:03;98989.84;;;10.68;100.00
60099;BME280;62818;49.394;8.686;2023-10-31T04:18:27;98993.63;;;10.91;100.00
60099;BME280;62818;49.394;8.686;2023-10-31T04:19:30;98995.16;;;10.68;100.00
60099;BME280;62818;49.394;8.686;2023-10-31T04:20:33;98990.88;;;10.67;100.00
60099;BME280;62818;49.394;8.686;2023-10-31T04:21:34;98997.84;;;11.05;100.00
60099;BME280;62818;49.394;8.686;2023-10-31T04:22:34;98994.88;;;10.82;100.00
60099;BME280;62818;49.394;8.686;2023-10-31T04:23:35;99003.91;;;10.68;100.00
60099;BME280;62818;49.394;8.686;2023-10-31T04:24:35;98995.50;;;10.78;100.00
60099;BME280;62818;49.394;8.686;2023-10-31T04:25:35;98997.50;;;10.89;100.00
60099;BME280;62818;49.394;8.686;2023-10-31T04:26:36;99006.59;;;11.06;100.00
60099;BME280;62818;49.394;8.686;2023-10-31T04:27:37;99001.66;;;11.16;100.00
60099;BME280;62818;49.394;8.686;2023-10-31T04:28:37;99001.34;;;10.93;100.00
60099;BME280;62818;49.394;8.686;2023-10-31T04:29:38;99003.22;;;10.92;100.00
60099;BME280;62818;49.394;8.686;2023-10-31T04:30:38;99001.88;;;11.14;100.00
60099;BME280;62818;49.394;8.686;2023-10-31T04:31:39;98995.97;;;11.06;100.00
60099;BME280;62818;49.394;8.686;2023-10-31T04:32:39;99003.31;;;11.10;100.00
60099;BME280;62818;49.394;8.686;2023-10-31T04:33:40;99004.16;;;11.04;100.00
60099;BME280;62818;49.394;8.686;2023-10-31T04:34:40;99007.88;;;10.97;100.00
60099;BME280;62818;49.394;8.686;2023-10-31T04:35:41;99004.19;;;10.98;100.00
60099;BME280;62818;49.394;8.686;2023-10-31T04:36:41;99010.13;;;10.93;100.00
60099;BME280;62818;49.394;8.686;2023-10-31T04:37:42;99005.38;;;11.02;100.00
60099;BME280;62818;49.394;8.686;2023-10-31T04:38:42;99007.56;;;11.18;100.00
60099;BME280;62818;49.394;8.686;2023-10-31T04:39:43;98997.63;;;11.07;100.00
60099;BME280;62818;49.394;8.686;2023-10-31T04:40:43;98998.06;;;10.97;100.00
60099;BME280;62818;49.394;8.686;2023-10-31T04:41:44;99001.75;;;10.96;100.00
60099;BME280;62818;49.394;8.686;2023-10-31T04:42:46;99002.94;;;11.07;100.00
60099;BME280;62818;49.394;8.686;2023-10-31T04:43:47;99002.81;;;11.27;100.00
60099;BME280;62818;49.394;8.686;2023-10-31T04:44:48;99001.50;;;11.04;100.00
60099;BME280;62818;49.394;8.686;2023-10-31T04:45:48;99007.22;;;11.08;100.00
60099;BME280;62818;49.394;8.686;2023-10-31T04:46:49;98999.25;;;11.08;100.00
60099;BME280;62818;49.394;8.686;2023-10-31T04:47:49;98993.84;;;10.90;100.00
60099;BME280;62818;49.394;8.686;2023-10-31T04:48:50;98996.06;;;10.86;100.00
60099;BME280;62818;49.394;8.686;2023-10-31T04:49:50;99001.34;;;10.93;100.00
60099;BME280;62818;49.394;8.686;2023-10-31T04:50:51;98999.34;;;10.82;100.00
60099;BME280;62818;49.394;8.686;2023-10-31T04:51:51;99005.50;;;10.76;100.00
60099;BME280;62818;49.394;8.686;2023-10-31T04:52:52;98997.59;;;10.69;100.00
60099;BME280;62818;49.394;8.686;2023-10-31T04:53:52;99005.88;;;10.86;100.00
60099;BME280;62818;49.394;8.686;2023-10-31T04:54:53;99008.28;;;10.94;100.00
60099;BME280;62818;49.394;8.686;2023-10-31T04:55:54;99005.41;;;10.95;100.00
60099;BME280;62818;49.394;8.686;2023-10-31T04:56:55;99011.13;;;10.99;100.00
60099;BME280;62818;49.394;8.686;2023-10-31T04:57:55;99016.44;;;10.99;100.00
60099;BME280;62818;49.394;8.686;2023-10-31T04:58:56;99006.25;;;10.96;100.00
60099;BME280;62818;49.394;8.686;2023-10-31T04:59:56;99007.44;;;11.00;100.00
60099;BME280;62818;49.394;8.686;2023-10-31T05:00:58;99015.44;;;10.87;100.00
60099;BME280;62818;49.394;8.686;2023-10-31T05:02:00;99009.91;;;10.95;100.00
60099;BME280;62818;49.394;8.686;2023-10-31T05:03:00;99001.31;;;10.99;100.00
60099;BME280;62818;49.394;8.686;2023-10-31T05:04:03;99000.53;;;10.99;100.00
60099;BME280;62818;49.394;8.686;2023-10-31T05:05:03;98993.97;;;11.08;100.00
60099;BME280;62818;49.394;8.686;2023-10-31T05:06:05;99011.09;;;11.05;100.00
60099;BME280;62818;49.394;8.686;2023-10-31T05:07:06;99009.88;;;11.08;100.00
60099;BME280;62818;49.394;8.686;2023-10-31T05:08:06;99010.09;;;11.00;100.00
60099;BME280;62818;49.394;8.686;2023-10-31T05:09:07;99009.47;;;11.04;100.00
60099;BME280;62818;49.394;8.686;2023-10-31T05:10:08;99008.69;;;10.91;100.00
60099;BME280;62818;49.394;8.686;2023-10-31T05:11:08;99009.56;;;10.85;100.00
60099;BME280;62818;49.394;8.686;2023-10-31T05:12:09;99015.19;;;10.95;100.00
60099;BME280;62818;49.394;8.686;2023-10-31T05:13:10;99007.81;;;11.10;100.00
60099;BME280;62818;49.394;8.686;2023-10-31T05:14:10;99012.94;;;11.05;100.00
60099;BME280;62818;49.394;8.686;2023-10-31T05:15:11;99008.19;;;11.13;100.00
60099;BME280;62818;49.394;8.686;2023-10-31T05:16:11;99014.38;;;11.01;100.00
60099;BME280;62818;49.394;8.686;2023-10-31T05:17:12;99015.66;;;10.92;100.00
60099;BME280;62818;49.394;8.686;2023-10-31T05:18:12;99016.63;;;10.97;100.00
60099;BME280;62818;49.394;8.686;2023-10-31T05:19:13;99022.47;;;11.19;100.00
60099;BME280;62818;49.394;8.686;2023-10-31T05:20:13;99019.63;;;11.14;100.00
60099;BME280;62818;49.394;8.686;2023-10-31T05:21:19;99005.72;;;11.18;100.00
60099;BME280;62818;49.394;8.686;2023-10-31T05:22:23;99005.31;;;11.15;100.00
60099;BME280;62818;49.394;8.686;2023-10-31T05:23:24;99009.13;;;11.32;100.00
60099;BME280;62818;49.394;8.686;2023-10-31T05:24:24;99011.41;;;11.22;100.00
60099;BME280;62818;49.394;8.686;2023-10-31T05:25:25;99011.84;;;11.19;100.00
60099;BME280;62818;49.394;8.686;2023-10-31T05:26:25;99019.19;;;11.17;100.00
60099;BME280;62818;49.394;8.686;2023-10-31T05:27:28;99022.38;;;11.32;100.00
60099;BME280;62818;49.394;8.686;2023-10-31T05:28:28;99020.19;;;11.23;100.00
60099;BME280;62818;49.394;8.686;2023-10-31T05:29:29;99022.72;;;11.04;100.00
60099;BME280;62818;49.394;8.686;2023-10-31T05:30:30;99030.81;;;11.16;100.00
60099;BME280;62818;49.394;8.686;2023-10-31T05:31:31;99027.38;;;11.09;100.00
60099;BME280;62818;49.394;8.686;2023-10-31T05:32:31;99025.34;;;11.11;100.00
60099;BME280;62818;49.394;8.686;2023-10-31T05:33:32;99025.38;;;11.04;100.00
60099;BME280;62818;49.394;8.686;2023-10-31T05:34:32;99033.16;;;10.93;100.00
60099;BME280;62818;49.394;8.686;2023-10-31T05:35:33;99025.81;;;10.95;100.00
60099;BME280;62818;49.394;8.686;2023-10-31T05:36:34;99025.81;;;11.01;100.00
60099;BME280;62818;49.394;8.686;2023-10-31T05:37:34;99030.28;;;11.01;100.00
60099;BME280;62818;49.394;8.686;2023-10-31T05:38:35;99029.91;;;10.91;100.00
60099;BME280;62818;49.394;8.686;2023-10-31T05:39:35;99027.84;;;10.99;100.00
60099;BME280;62818;49.394;8.686;2023-10-31T05:40:37;99025.00;;;11.01;100.00
60099;BME280;62818;49.394;8.686;2023-10-31T05:41:37;99020.94;;;10.92;100.00
60099;BME280;62818;49.394;8.686;2023-10-31T05:42:38;99031.31;;;11.00;100.00
60099;BME280;62818;49.394;8.686;2023-10-31T05:43:39;99032.28;;;11.12;100.00
60099;BME280;62818;49.394;8.686;2023-10-31T05:44:40;99042.84;;;11.18;100.00
60099;BME280;62818;49.394;8.686;2023-10-31T05:45:40;99031.13;;;10.95;100.00
60099;BME280;62818;49.394;8.686;2023-10-31T05:46:40;99029.44;;;11.07;100.00
60099;BME280;62818;49.394;8.686;2023-10-31T05:47:41;99029.69;;;10.99;100.00
60099;BME280;62818;49.394;8.686;2023-10-31T05:48:44;99034.81;;;10.94;100.00
60099;BME280;62818;49.394;8.686;2023-10-31T05:49:46;99035.38;;;11.02;100.00
60099;BME280;62818;49.394;8.686;2023-10-31T05:50:46;99033.53;;;11.03;100.00
60099;BME280;62818;49.394;8.686;2023-10-31T05:51:53;99050.31;;;10.97;100.00
60099;BME280;62818;49.394;8.686;2023-10-31T05:52:53;99050.72;;;10.94;100.00
60099;BME280;62818;49.394;8.686;2023-10-31T05:53:54;99054.16;;;11.01;100.00
60099;BME280;62818;49.394;8.686;2023-10-31T05:54:55;99058.00;;;11.05;100.00
60099;BME280;62818;49.394;8.686;2023-10-31T05:55:56;99067.56;;;11.06;100.00
60099;BME280;62818;49.394;8.686;2023-10-31T05:56:56;99062.13;;;11.01;100.00
60099;BME280;62818;49.394;8.686;2023-10-31T05:57:56;99076.81;;;10.97;100.00
60099;BME280;62818;49.394;8.686;2023-10-31T05:58:57;99071.09;;;10.93;100.00
60099;BME280;62818;49.394;8.686;2023-10-31T05:59:57;99069.81;;;11.09;100.00
60099;BME280;62818;49.394;8.686;2023-10-31T06:00:58;99070.66;;;11.03;100.00
60099;BME280;62818;49.394;8.686;2023-10-31T06:01:59;99072.72;;;11.01;100.00
60099;BME280;62818;49.394;8.686;2023-10-31T06:02:59;99084.34;;;10.93;100.00
60099;BME280;62818;49.394;8.686;2023-10-31T06:04:00;99078.22;;;10.93;100.00
60099;BME280;62818;49.394;8.686;2023-10-31T06:05:00;99079.28;;;10.92;100.00
60099;BME280;62818;49.394;8.686;2023-10-31T06:06:00;99088.22;;;10.97;100.00
60099;BME280;62818;49.394;8.686;2023-10-31T06:07:01;99082.06;;;11.10;100.00
60099;BME280;62818;49.394;8.686;2023-10-31T06:08:03;99088.53;;;11.21;100.00
60099;BME280;62818;49.394;8.686;2023-10-31T06:09:03;99081.63;;;11.13;100.00
60099;BME280;62818;49.394;8.686;2023-10-31T06:10:05;99083.63;;;11.24;100.00
60099;BME280;62818;49.394;8.686;2023-10-31T06:11:06;99084.91;;;11.08;100.00
60099;BME280;62818;49.394;8.686;2023-10-31T06:12:07;99081.69;;;11.00;100.00
60099;BME280;62818;49.394;8.686;2023-10-31T06:13:07;99085.41;;;10.92;100.00
60099;BME280;62818;49.394;8.686;2023-10-31T06:14:08;99080.06;;;10.99;100.00
60099;BME280;62818;49.394;8.686;2023-10-31T06:15:09;99087.41;;;11.03;100.00
60099;BME280;62818;49.394;8.686;2023-10-31T06:16:09;99085.78;;;10.96;100.00
60099;BME280;62818;49.394;8.686;2023-10-31T06:17:10;99091.28;;;11.01;100.00
60099;BME280;62818;49.394;8.686;2023-10-31T06:18:11;99087.66;;;11.33;100.00
60099;BME280;62818;49.394;8.686;2023-10-31T06:19:12;99095.06;;;11.25;100.00
60099;BME280;62818;49.394;8.686;2023-10-31T06:20:13;99090.97;;;11.22;100.00
60099;BME280;62818;49.394;8.686;2023-10-31T06:21:16;99099.19;;;11.14;100.00
60099;BME280;62818;49.394;8.686;2023-10-31T06:22:20;99096.75;;;11.06;100.00
60099;BME280;62818;49.394;8.686;2023-10-31T06:23:20;99091.19;;;11.21;100.00
60099;BME280;62818;49.394;8.686;2023-10-31T06:24:21;99097.72;;;11.18;100.00
60099;BME280;62818;49.394;8.686;2023-10-31T06:25:21;99096.34;;;11.09;100.00
60099;BME280;62818;49.394;8.686;2023-10-31T06:26:24;99103.31;;;11.03;100.00
60099;BME280;62818;49.394;8.686;2023-10-31T06:27:25;99103.69;;;11.07;100.00
60099;BME280;62818;49.394;8.686;2023-10-31T06:28:26;99110.19;;;11.11;100.00
60099;BME280;62818;49.394;8.686;2023-10-31T06:29:26;99103.25;;;11.16;100.00
60099;BME280;62818;49.394;8.686;2023-10-31T06:30:27;99108.72;;;11.22;100.00
60099;BME280;62818;49.394;8.686;2023-10-31T06:31:27;99115.50;;;11.11;100.00
60099;BME280;62818;49.394;8.686;2023-10-31T06:32:28;99111.25;;;11.48;100.00
60099;BME280;62818;49.394;8.686;2023-10-31T06:33:28;99116.09;;;11.13;100.00
60099;BME280;62818;49.394;8.686;2023-10-31T06:34:29;99120.81;;;11.11;100.00
60099;BME280;62818;49.394;8.686;2023-10-31T06:35:30;99121.66;;;11.05;100.00
60099;BME280;62818;49.394;8.686;2023-10-31T06:36:31;99122.50;;;10.99;100.00
60099;BME280;62818;49.394;8.686;2023-10-31T06:37:31;99124.31;;;10.98;100.00
60099;BME280;62818;49.394;8.686;2023-10-31T06:38:32;99133.09;;;10.99;100.00
60099;BME280;62818;49.394;8.686;2023-10-31T06:39:32;99122.50;;;10.99;100.00
60099;BME280;62818;49.394;8.686;2023-10-31T06:40:33;99124.66;;;11.15;100.00
60099;BME280;62818;49.394;8.686;2023-10-31T06:41:33;99124.50;;;11.10;100.00
60099;BME280;62818;49.394;8.686;2023-10-31T06:42:35;99131.84;;;10.95;100.00
60099;BME280;62818;49.394;8.686;2023-10-31T06:43:36;99131.59;;;11.23;100.00
60099;BME280;62818;49.394;8.686;2023-10-31T06:44:36;99136.69;;;12.31;100.00
60099;BME280;62818;49.394;8.686;2023-10-31T06:45:36;99135.56;;;11.45;100.00
60099;BME280;62818;49.394;8.686;2023-10-31T06:46:37;99136.72;;;11.04;100.00
60099;BME280;62818;49.394;8.686;2023-10-31T06:47:37;99134.09;;;12.24;100.00
60099;BME280;62818;49.394;8.686;2023-10-31T06:48:38;99136.72;;;12.00;100.00
60099;BME280;62818;49.394;8.686;2023-10-31T06:49:38;99140.78;;;11.64;100.00
60099;BME280;62818;49.394;8.686;2023-10-31T06:50:39;99152.06;;;11.53;100.00
60099;BME280;62818;49.394;8.686;2023-10-31T06:51:39;99143.25;;;11.08;100.00
60099;BME280;62818;49.394;8.686;2023-10-31T06:52:40;99139.84;;;11.46;100.00
60099;BME280;62818;49.394;8.686;2023-10-31T06:53:40;99141.78;;;11.70;100.00
60099;BME280;62818;49.394;8.686;2023-10-31T06:54:41;99142.97;;;11.36;100.00
60099;BME280;62818;49.394;8.686;2023-10-31T06:55:41;99140.13;;;11.31;100.00
60099;BME280;62818;49.394;8.686;2023-10-31T06:56:42;99135.91;;;11.10;100.00
60099;BME280;62818;49.394;8.686;2023-10-31T06:57:42;99142.63;;;11.13;100.00
60099;BME280;62818;49.394;8.686;2023-10-31T06:58:44;99146.53;;;11.04;100.00
60099;BME280;62818;49.394;8.686;2023-10-31T06:59:45;99140.56;;;11.15;100.00
60099;BME280;62818;49.394;8.686;2023-10-31T07:00:46;99144.72;;;10.98;100.00
60099;BME280;62818;49.394;8.686;2023-10-31T07:01:47;99151.19;;;11.15;100.00
60099;BME280;62818;49.394;8.686;2023-10-31T07:02:47;99149.59;;;11.07;100.00
60099;BME280;62818;49.394;8.686;2023-10-31T07:03:48;99147.16;;;11.95;100.00
60099;BME280;62818;49.394;8.686;2023-10-31T07:04:48;99146.44;;;11.37;100.00
60099;BME280;62818;49.394;8.686;2023-10-31T07:05:49;99156.09;;;11.11;100.00
60099;BME280;62818;49.394;8.686;2023-10-31T07:06:50;99148.16;;;11.11;100.00
60099;BME280;62818;49.394;8.686;2023-10-31T07:07:57;99155.06;;;11.19;100.00
60099;BME280;62818;49.394;8.686;2023-10-31T07:08:57;99159.75;;;11.17;100.00
60099;BME280;62818;49.394;8.686;2023-10-31T07:10:00;99153.25;;;11.06;100.00
60099;BME280;62818;49.394;8.686;2023-10-31T07:11:01;99164.94;;;10.86;100.00
60099;BME280;62818;49.394;8.686;2023-10-31T07:12:01;99161.84;;;10.89;100.00
60099;BME280;62818;49.394;8.686;2023-10-31T07:13:02;99164.69;;;11.07;100.00
60099;BME280;62818;49.394;8.686;2023-10-31T07:14:02;99163.66;;;11.08;100.00
60099;BME280;62818;49.394;8.686;2023-10-31T07:15:04;99166.94;;;11.03;100.00
60099;BME280;62818;49.394;8.686;2023-10-31T07:16:05;99167.38;;;10.94;100.00
60099;BME280;62818;49.394;8.686;2023-10-31T07:17:06;99173.06;;;10.91;100.00
60099;BME280;62818;49.394;8.686;2023-10-31T07:18:06;99167.13;;;11.02;100.00
60099;BME280;62818;49.394;8.686;2023-10-31T07:19:10;99175.53;;;10.99;100.00
60099;BME280;62818;49.394;8.686;2023-10-31T07:20:11;99174.94;;;10.90;100.00
60099;BME280;62818;49.394;8.686;2023-10-31T07:21:12;99171.63;;;10.95;100.00
60099;BME280;62818;49.394;8.686;2023-10-31T07:22:13;99175.09;;;11.02;100.00
60099;BME280;62818;49.394;8.686;2023-10-31T07:23:13;99180.78;;;11.18;100.00
60099;BME280;62818;49.394;8.686;2023-10-31T07:24:15;99175.50;;;11.12;100.00
60099;BME280;62818;49.394;8.686;2023-10-31T07:25:15;99169.94;;;11.20;100.00
60099;BME280;62818;49.394;8.686;2023-10-31T07:26:16;99174.28;;;11.08;100.00
60099;BME280;62818;49.394;8.686;2023-10-31T07:27:17;99184.88;;;11.08;100.00
60099;BME280;62818;49.394;8.686;2023-10-31T07:28:18;99186.09;;;11.05;100.00
60099;BME280;62818;49.394;8.686;2023-10-31T07:29:18;99177.13;;;11.00;100.00
60099;BME280;62818;49.394;8.686;2023-10-31T07:30:19;99184.88;;;11.08;100.00